Valentina — V2GV6 — position and weather

sailwx.info

Track history (hours):
 
Tides and Currents Weather Stations Pressure Air Temp Water Temp Dewpoint Dewpoint Depression Visibility Wind Speed Wind Dir Waves Ship Positions

Valentina

Last reported at 2017-Dec-14 17:58 UTC. Time now 2017-Dec-16 03:17 UTC.
Position N 43°20' E 005°21'.

Length 95 m; draft 6.6 m.

Type: Cargo ship. MMSI: 305330000.

Date/timePositionNaut miles runAvg speedWind from/ knotsBaromVisibWave heightAir tempDewpointWater temp
2017-Dec-14 17:58N 43°20' E 005°21'0 0.0
2017-Dec-13 05:07N 43°20' E 005°21'0 0.0
2017-Dec-13 04:58N 43°20' E 005°21'2 3.2
2017-Dec-13 04:29N 43°21' E 005°19'5 8.4
2017-Dec-13 03:56N 43°18' E 005°14'4 9.9
2017-Dec-13 03:30N 43°15' E 005°10'5 9.9
2017-Dec-13 03:00N 43°12' E 005°05'5 8.4
2017-Dec-13 02:26N 43°10' E 004°59'4 9.8
2017-Dec-13 02:01N 43°10' E 004°53'5 9.4
2017-Dec-13 01:30N 43°09' E 004°47'5 9.1
2017-Dec-13 01:00N 43°08' E 004°40'5 9.5
2017-Dec-13 00:30N 43°08' E 004°34'  
Track history (hours):
 
Tides and Currents Weather Stations Pressure Air Temp Water Temp Dewpoint Dewpoint Depression Visibility Wind Speed Wind Dir Waves Ship Positions

Valentina

Last reported at 2017-Dec-14 17:58 UTC. Time now 2017-Dec-16 03:17 UTC.
Position N 43°20' E 005°21'.

Length 95 m; draft 6.6 m.

Type: Cargo ship. MMSI: 305330000.

Date/timePositionNaut miles runAvg speedWind from/ knotsBaromVisibWave heightAir tempDewpointWater temp
2017-Dec-14 17:58N 43°20' E 005°21'0 0.0
2017-Dec-13 05:07N 43°20' E 005°21'0 0.0
2017-Dec-13 04:58N 43°20' E 005°21'2 3.2
2017-Dec-13 04:29N 43°21' E 005°19'5 8.4
2017-Dec-13 03:56N 43°18' E 005°14'4 9.9
2017-Dec-13 03:30N 43°15' E 005°10'5 9.9
2017-Dec-13 03:00N 43°12' E 005°05'5 8.4
2017-Dec-13 02:26N 43°10' E 004°59'4 9.8
2017-Dec-13 02:01N 43°10' E 004°53'5 9.4
2017-Dec-13 01:30N 43°09' E 004°47'5 9.1
2017-Dec-13 01:00N 43°08' E 004°40'5 9.5
2017-Dec-13 00:30N 43°08' E 004°34'  

Dump ship's entire track history